sensor_id;sensor_type;location;lat;lon;timestamp;P1;durP1;ratioP1;P2;durP2;ratioP2
62933;SDS011;49038;47.600;19.242;2023-03-19T00:01:44;6.00;;;3.78;;
62933;SDS011;49038;47.600;19.242;2023-03-19T00:04:47;9.18;;;4.40;;
62933;SDS011;49038;47.600;19.242;2023-03-19T00:07:49;6.50;;;3.60;;
62933;SDS011;49038;47.600;19.242;2023-03-19T00:10:52;9.98;;;4.60;;
62933;SDS011;49038;47.600;19.242;2023-03-19T00:13:54;5.90;;;3.97;;
62933;SDS011;49038;47.600;19.242;2023-03-19T00:16:56;6.93;;;3.80;;
62933;SDS011;49038;47.600;19.242;2023-03-19T00:19:59;4.68;;;3.75;;
62933;SDS011;49038;47.600;19.242;2023-03-19T00:23:01;7.10;;;3.60;;
62933;SDS011;49038;47.600;19.242;2023-03-19T00:26:03;6.37;;;3.75;;
62933;SDS011;49038;47.600;19.242;2023-03-19T00:29:06;5.37;;;3.28;;
62933;SDS011;49038;47.600;19.242;2023-03-19T00:32:09;8.65;;;3.37;;
62933;SDS011;49038;47.600;19.242;2023-03-19T00:35:11;6.82;;;3.83;;
62933;SDS011;49038;47.600;19.242;2023-03-19T00:38:13;7.43;;;4.03;;
62933;SDS011;49038;47.600;19.242;2023-03-19T00:41:16;4.10;;;3.05;;
62933;SDS011;49038;47.600;19.242;2023-03-19T00:44:19;6.25;;;3.78;;
62933;SDS011;49038;47.600;19.242;2023-03-19T00:47:22;7.28;;;3.95;;
62933;SDS011;49038;47.600;19.242;2023-03-19T00:50:24;6.18;;;2.72;;
62933;SDS011;49038;47.600;19.242;2023-03-19T00:53:27;7.60;;;4.28;;
62933;SDS011;49038;47.600;19.242;2023-03-19T00:56:29;4.28;;;2.80;;
62933;SDS011;49038;47.600;19.242;2023-03-19T00:59:31;6.82;;;3.30;;
62933;SDS011;49038;47.600;19.242;2023-03-19T01:02:34;5.20;;;3.15;;
62933;SDS011;49038;47.600;19.242;2023-03-19T01:05:36;4.35;;;3.22;;
62933;SDS011;49038;47.600;19.242;2023-03-19T01:08:37;5.82;;;3.25;;
62933;SDS011;49038;47.600;19.242;2023-03-19T01:11:39;5.03;;;2.92;;
62933;SDS011;49038;47.600;19.242;2023-03-19T01:14:42;6.20;;;3.10;;
62933;SDS011;49038;47.600;19.242;2023-03-19T01:17:44;4.43;;;3.00;;
62933;SDS011;49038;47.600;19.242;2023-03-19T01:20:46;7.65;;;3.30;;
62933;SDS011;49038;47.600;19.242;2023-03-19T01:23:49;5.22;;;3.47;;
62933;SDS011;49038;47.600;19.242;2023-03-19T01:26:52;7.03;;;3.47;;
62933;SDS011;49038;47.600;19.242;2023-03-19T01:29:55;4.82;;;2.83;;
62933;SDS011;49038;47.600;19.242;2023-03-19T01:32:57;5.78;;;3.25;;
62933;SDS011;49038;47.600;19.242;2023-03-19T01:35:59;12.45;;;4.00;;
62933;SDS011;49038;47.600;19.242;2023-03-19T01:39:06;7.45;;;3.40;;
62933;SDS011;49038;47.600;19.242;2023-03-19T01:42:08;4.22;;;3.03;;
62933;SDS011;49038;47.600;19.242;2023-03-19T01:45:29;4.82;;;2.80;;
62933;SDS011;49038;47.600;19.242;2023-03-19T01:48:38;4.12;;;3.00;;
62933;SDS011;49038;47.600;19.242;2023-03-19T01:51:43;4.45;;;3.00;;
62933;SDS011;49038;47.600;19.242;2023-03-19T01:54:46;3.03;;;2.50;;
62933;SDS011;49038;47.600;19.242;2023-03-19T01:57:49;3.67;;;2.72;;
62933;SDS011;49038;47.600;19.242;2023-03-19T02:00:52;3.87;;;3.03;;
62933;SDS011;49038;47.600;19.242;2023-03-19T02:03:54;3.75;;;2.75;;
62933;SDS011;49038;47.600;19.242;2023-03-19T02:06:57;3.33;;;2.65;;
62933;SDS011;49038;47.600;19.242;2023-03-19T02:10:01;4.07;;;3.25;;
62933;SDS011;49038;47.600;19.242;2023-03-19T02:13:05;4.30;;;2.65;;
62933;SDS011;49038;47.600;19.242;2023-03-19T02:16:08;3.30;;;2.97;;
62933;SDS011;49038;47.600;19.242;2023-03-19T02:19:13;4.82;;;2.97;;
62933;SDS011;49038;47.600;19.242;2023-03-19T02:22:19;4.25;;;3.45;;
62933;SDS011;49038;47.600;19.242;2023-03-19T02:25:32;4.30;;;3.05;;
62933;SDS011;49038;47.600;19.242;2023-03-19T02:28:39;4.45;;;2.65;;
62933;SDS011;49038;47.600;19.242;2023-03-19T02:31:43;4.70;;;2.80;;
62933;SDS011;49038;47.600;19.242;2023-03-19T02:34:45;3.35;;;2.40;;
62933;SDS011;49038;47.600;19.242;2023-03-19T02:37:48;4.93;;;2.70;;
62933;SDS011;49038;47.600;19.242;2023-03-19T02:40:58;4.15;;;2.65;;
62933;SDS011;49038;47.600;19.242;2023-03-19T02:44:03;4.43;;;2.83;;
62933;SDS011;49038;47.600;19.242;2023-03-19T02:47:05;3.87;;;3.08;;
62933;SDS011;49038;47.600;19.242;2023-03-19T02:50:08;3.97;;;2.65;;
62933;SDS011;49038;47.600;19.242;2023-03-19T02:53:11;4.00;;;2.50;;
62933;SDS011;49038;47.600;19.242;2023-03-19T02:56:13;4.62;;;3.17;;
62933;SDS011;49038;47.600;19.242;2023-03-19T02:59:15;6.40;;;3.28;;
62933;SDS011;49038;47.600;19.242;2023-03-19T03:02:17;4.45;;;2.72;;
62933;SDS011;49038;47.600;19.242;2023-03-19T03:05:20;3.70;;;2.67;;
62933;SDS011;49038;47.600;19.242;2023-03-19T03:08:22;3.28;;;2.65;;
62933;SDS011;49038;47.600;19.242;2023-03-19T03:11:24;2.95;;;2.47;;
62933;SDS011;49038;47.600;19.242;2023-03-19T03:14:26;4.00;;;3.00;;
62933;SDS011;49038;47.600;19.242;2023-03-19T03:17:29;6.30;;;2.70;;
62933;SDS011;49038;47.600;19.242;2023-03-19T03:20:31;4.95;;;2.30;;
62933;SDS011;49038;47.600;19.242;2023-03-19T03:23:34;3.75;;;2.40;;
62933;SDS011;49038;47.600;19.242;2023-03-19T03:26:37;3.25;;;2.70;;
62933;SDS011;49038;47.600;19.242;2023-03-19T03:29:39;4.30;;;2.60;;
62933;SDS011;49038;47.600;19.242;2023-03-19T03:32:42;2.55;;;2.35;;
62933;SDS011;49038;47.600;19.242;2023-03-19T03:35:44;3.03;;;2.78;;
62933;SDS011;49038;47.600;19.242;2023-03-19T03:38:47;5.80;;;3.25;;
62933;SDS011;49038;47.600;19.242;2023-03-19T03:41:50;2.28;;;1.92;;
62933;SDS011;49038;47.600;19.242;2023-03-19T03:44:52;5.57;;;2.58;;
62933;SDS011;49038;47.600;19.242;2023-03-19T03:47:54;10.10;;;2.58;;
62933;SDS011;49038;47.600;19.242;2023-03-19T03:50:57;3.67;;;2.00;;
62933;SDS011;49038;47.600;19.242;2023-03-19T03:53:59;4.28;;;2.30;;
62933;SDS011;49038;47.600;19.242;2023-03-19T03:57:01;2.80;;;2.47;;
62933;SDS011;49038;47.600;19.242;2023-03-19T04:00:04;2.35;;;2.15;;
62933;SDS011;49038;47.600;19.242;2023-03-19T04:03:07;2.83;;;2.37;;
62933;SDS011;49038;47.600;19.242;2023-03-19T04:06:12;3.47;;;2.50;;
62933;SDS011;49038;47.600;19.242;2023-03-19T04:09:15;4.85;;;2.67;;
62933;SDS011;49038;47.600;19.242;2023-03-19T04:12:18;2.78;;;2.35;;
62933;SDS011;49038;47.600;19.242;2023-03-19T04:15:20;2.92;;;2.10;;
62933;SDS011;49038;47.600;19.242;2023-03-19T04:18:23;3.20;;;2.40;;
62933;SDS011;49038;47.600;19.242;2023-03-19T04:21:25;3.05;;;2.83;;
62933;SDS011;49038;47.600;19.242;2023-03-19T04:24:28;2.35;;;1.83;;
62933;SDS011;49038;47.600;19.242;2023-03-19T04:27:31;3.08;;;1.87;;
62933;SDS011;49038;47.600;19.242;2023-03-19T04:30:33;10.20;;;2.37;;
62933;SDS011;49038;47.600;19.242;2023-03-19T04:33:36;5.00;;;2.53;;
62933;SDS011;49038;47.600;19.242;2023-03-19T04:36:39;3.17;;;2.70;;
62933;SDS011;49038;47.600;19.242;2023-03-19T04:39:41;9.43;;;2.95;;
62933;SDS011;49038;47.600;19.242;2023-03-19T04:42:44;3.58;;;1.85;;
62933;SDS011;49038;47.600;19.242;2023-03-19T04:45:46;3.05;;;1.95;;
62933;SDS011;49038;47.600;19.242;2023-03-19T04:48:48;1.98;;;1.83;;
62933;SDS011;49038;47.600;19.242;2023-03-19T04:51:51;3.22;;;2.78;;
62933;SDS011;49038;47.600;19.242;2023-03-19T04:54:53;4.00;;;2.45;;
62933;SDS011;49038;47.600;19.242;2023-03-19T04:57:55;4.68;;;2.33;;
62933;SDS011;49038;47.600;19.242;2023-03-19T05:00:58;2.08;;;1.87;;
62933;SDS011;49038;47.600;19.242;2023-03-19T05:04:01;3.50;;;2.33;;
62933;SDS011;49038;47.600;19.242;2023-03-19T05:07:03;3.53;;;2.25;;
62933;SDS011;49038;47.600;19.242;2023-03-19T05:10:06;2.35;;;2.05;;
62933;SDS011;49038;47.600;19.242;2023-03-19T05:13:10;3.15;;;2.85;;
62933;SDS011;49038;47.600;19.242;2023-03-19T05:16:12;3.80;;;2.72;;
62933;SDS011;49038;47.600;19.242;2023-03-19T05:19:14;5.80;;;3.33;;
62933;SDS011;49038;47.600;19.242;2023-03-19T05:22:17;6.25;;;2.95;;
62933;SDS011;49038;47.600;19.242;2023-03-19T05:25:21;3.22;;;2.83;;
62933;SDS011;49038;47.600;19.242;2023-03-19T05:28:23;3.35;;;2.50;;
62933;SDS011;49038;47.600;19.242;2023-03-19T05:31:25;4.00;;;2.97;;
62933;SDS011;49038;47.600;19.242;2023-03-19T05:34:28;7.80;;;2.40;;
62933;SDS011;49038;47.600;19.242;2023-03-19T05:37:30;6.05;;;3.10;;
62933;SDS011;49038;47.600;19.242;2023-03-19T05:40:33;3.65;;;3.22;;
62933;SDS011;49038;47.600;19.242;2023-03-19T05:43:37;2.97;;;2.15;;
62933;SDS011;49038;47.600;19.242;2023-03-19T05:46:39;9.50;;;2.80;;
62933;SDS011;49038;47.600;19.242;2023-03-19T05:49:42;4.65;;;2.58;;
62933;SDS011;49038;47.600;19.242;2023-03-19T05:52:44;3.08;;;2.25;;
62933;SDS011;49038;47.600;19.242;2023-03-19T05:55:46;3.85;;;2.67;;
62933;SDS011;49038;47.600;19.242;2023-03-19T05:58:49;6.15;;;3.15;;
62933;SDS011;49038;47.600;19.242;2023-03-19T06:01:51;5.03;;;3.47;;
62933;SDS011;49038;47.600;19.242;2023-03-19T06:04:53;3.58;;;3.10;;
62933;SDS011;49038;47.600;19.242;2023-03-19T06:07:56;4.72;;;3.20;;
62933;SDS011;49038;47.600;19.242;2023-03-19T06:10:58;2.65;;;2.30;;
62933;SDS011;49038;47.600;19.242;2023-03-19T06:14:00;3.78;;;2.67;;
62933;SDS011;49038;47.600;19.242;2023-03-19T06:17:03;3.40;;;2.30;;
62933;SDS011;49038;47.600;19.242;2023-03-19T06:20:05;4.05;;;2.87;;
62933;SDS011;49038;47.600;19.242;2023-03-19T06:23:07;3.90;;;3.05;;
62933;SDS011;49038;47.600;19.242;2023-03-19T06:26:10;3.10;;;2.08;;
62933;SDS011;49038;47.600;19.242;2023-03-19T06:29:12;4.25;;;3.05;;
62933;SDS011;49038;47.600;19.242;2023-03-19T06:32:14;6.50;;;3.53;;
62933;SDS011;49038;47.600;19.242;2023-03-19T06:35:17;3.50;;;2.30;;
62933;SDS011;49038;47.600;19.242;2023-03-19T06:38:19;3.33;;;2.47;;
62933;SDS011;49038;47.600;19.242;2023-03-19T06:41:22;5.75;;;2.65;;
62933;SDS011;49038;47.600;19.242;2023-03-19T06:44:25;4.05;;;2.60;;
62933;SDS011;49038;47.600;19.242;2023-03-19T06:47:28;3.62;;;2.58;;
62933;SDS011;49038;47.600;19.242;2023-03-19T06:50:30;2.58;;;2.03;;
62933;SDS011;49038;47.600;19.242;2023-03-19T06:53:33;4.60;;;2.53;;
62933;SDS011;49038;47.600;19.242;2023-03-19T06:56:35;4.15;;;2.40;;
62933;SDS011;49038;47.600;19.242;2023-03-19T06:59:38;4.15;;;1.98;;
62933;SDS011;49038;47.600;19.242;2023-03-19T07:02:40;2.83;;;2.30;;
62933;SDS011;49038;47.600;19.242;2023-03-19T07:05:42;2.78;;;2.40;;
62933;SDS011;49038;47.600;19.242;2023-03-19T07:08:44;4.22;;;2.72;;
62933;SDS011;49038;47.600;19.242;2023-03-19T07:11:47;4.05;;;2.85;;
62933;SDS011;49038;47.600;19.242;2023-03-19T07:14:49;3.65;;;2.62;;
62933;SDS011;49038;47.600;19.242;2023-03-19T07:17:52;5.20;;;3.12;;
62933;SDS011;49038;47.600;19.242;2023-03-19T07:20:54;4.28;;;2.67;;
62933;SDS011;49038;47.600;19.242;2023-03-19T07:23:56;2.55;;;1.90;;
62933;SDS011;49038;47.600;19.242;2023-03-19T07:26:58;5.00;;;2.67;;
62933;SDS011;49038;47.600;19.242;2023-03-19T07:30:01;4.78;;;2.28;;
62933;SDS011;49038;47.600;19.242;2023-03-19T07:33:03;4.90;;;3.12;;
62933;SDS011;49038;47.600;19.242;2023-03-19T07:36:06;7.18;;;2.42;;
62933;SDS011;49038;47.600;19.242;2023-03-19T07:39:09;3.22;;;2.40;;
62933;SDS011;49038;47.600;19.242;2023-03-19T07:42:11;3.05;;;2.60;;
62933;SDS011;49038;47.600;19.242;2023-03-19T07:45:14;3.62;;;2.15;;
62933;SDS011;49038;47.600;19.242;2023-03-19T07:48:16;2.58;;;1.85;;
62933;SDS011;49038;47.600;19.242;2023-03-19T07:51:19;3.72;;;2.15;;
62933;SDS011;49038;47.600;19.242;2023-03-19T07:54:22;3.87;;;2.53;;
62933;SDS011;49038;47.600;19.242;2023-03-19T07:57:24;6.35;;;2.65;;
62933;SDS011;49038;47.600;19.242;2023-03-19T08:00:27;4.72;;;2.65;;
62933;SDS011;49038;47.600;19.242;2023-03-19T08:03:29;4.03;;;2.55;;
62933;SDS011;49038;47.600;19.242;2023-03-19T08:06:31;3.12;;;2.20;;
62933;SDS011;49038;47.600;19.242;2023-03-19T08:09:34;3.72;;;2.75;;
62933;SDS011;49038;47.600;19.242;2023-03-19T08:12:36;3.60;;;2.83;;
62933;SDS011;49038;47.600;19.242;2023-03-19T08:15:42;8.02;;;2.92;;
62933;SDS011;49038;47.600;19.242;2023-03-19T08:18:44;5.05;;;3.05;;
62933;SDS011;49038;47.600;19.242;2023-03-19T08:21:46;7.20;;;2.70;;
62933;SDS011;49038;47.600;19.242;2023-03-19T08:24:48;6.22;;;2.67;;
62933;SDS011;49038;47.600;19.242;2023-03-19T08:27:51;4.25;;;2.72;;
62933;SDS011;49038;47.600;19.242;2023-03-19T08:30:53;6.37;;;2.50;;
62933;SDS011;49038;47.600;19.242;2023-03-19T08:33:57;4.75;;;2.65;;
62933;SDS011;49038;47.600;19.242;2023-03-19T08:37:03;3.00;;;2.65;;
62933;SDS011;49038;47.600;19.242;2023-03-19T08:40:05;5.55;;;3.22;;
62933;SDS011;49038;47.600;19.242;2023-03-19T08:43:08;6.25;;;2.83;;
62933;SDS011;49038;47.600;19.242;2023-03-19T08:46:11;5.85;;;3.67;;
62933;SDS011;49038;47.600;19.242;2023-03-19T08:49:13;4.32;;;3.10;;
62933;SDS011;49038;47.600;19.242;2023-03-19T08:52:16;8.50;;;2.67;;
62933;SDS011;49038;47.600;19.242;2023-03-19T08:55:19;3.83;;;2.58;;
62933;SDS011;49038;47.600;19.242;2023-03-19T08:58:21;3.80;;;2.70;;
62933;SDS011;49038;47.600;19.242;2023-03-19T09:01:24;5.93;;;2.87;;
62933;SDS011;49038;47.600;19.242;2023-03-19T09:04:27;4.32;;;2.53;;
62933;SDS011;49038;47.600;19.242;2023-03-19T09:07:29;4.80;;;3.22;;
62933;SDS011;49038;47.600;19.242;2023-03-19T09:10:31;3.47;;;2.72;;
62933;SDS011;49038;47.600;19.242;2023-03-19T09:13:34;6.15;;;3.28;;
62933;SDS011;49038;47.600;19.242;2023-03-19T09:16:37;5.03;;;2.80;;
62933;SDS011;49038;47.600;19.242;2023-03-19T09:19:40;5.05;;;2.90;;
62933;SDS011;49038;47.600;19.242;2023-03-19T09:22:42;4.70;;;2.42;;
62933;SDS011;49038;47.600;19.242;2023-03-19T09:25:45;4.05;;;2.25;;
62933;SDS011;49038;47.600;19.242;2023-03-19T09:28:47;4.82;;;3.12;;
62933;SDS011;49038;47.600;19.242;2023-03-19T09:31:49;3.37;;;2.22;;
62933;SDS011;49038;47.600;19.242;2023-03-19T09:34:51;5.55;;;3.12;;
62933;SDS011;49038;47.600;19.242;2023-03-19T09:37:54;6.12;;;2.60;;
62933;SDS011;49038;47.600;19.242;2023-03-19T09:44:10;4.30;;;2.83;;
62933;SDS011;49038;47.600;19.242;2023-03-19T09:50:29;5.68;;;3.28;;
62933;SDS011;49038;47.600;19.242;2023-03-19T09:53:44;4.07;;;2.70;;
62933;SDS011;49038;47.600;19.242;2023-03-19T09:56:54;3.33;;;2.60;;
62933;SDS011;49038;47.600;19.242;2023-03-19T09:59:56;4.57;;;2.37;;
62933;SDS011;49038;47.600;19.242;2023-03-19T10:06:39;3.30;;;2.40;;
62933;SDS011;49038;47.600;19.242;2023-03-19T10:09:44;3.97;;;2.20;;
62933;SDS011;49038;47.600;19.242;2023-03-19T10:16:13;4.68;;;2.92;;
62933;SDS011;49038;47.600;19.242;2023-03-19T10:19:21;4.85;;;2.62;;
62933;SDS011;49038;47.600;19.242;2023-03-19T10:22:39;4.95;;;3.33;;
62933;SDS011;49038;47.600;19.242;2023-03-19T10:25:45;4.05;;;2.60;;
62933;SDS011;49038;47.600;19.242;2023-03-19T10:28:59;4.28;;;2.83;;
62933;SDS011;49038;47.600;19.242;2023-03-19T10:35:44;4.82;;;3.22;;
62933;SDS011;49038;47.600;19.242;2023-03-19T10:38:50;3.58;;;2.20;;
62933;SDS011;49038;47.600;19.242;2023-03-19T10:41:59;4.78;;;2.97;;
62933;SDS011;49038;47.600;19.242;2023-03-19T10:48:50;6.62;;;2.65;;
62933;SDS011;49038;47.600;19.242;2023-03-19T10:51:52;5.18;;;3.10;;
62933;SDS011;49038;47.600;19.242;2023-03-19T10:55:04;4.43;;;2.30;;
62933;SDS011;49038;47.600;19.242;2023-03-19T10:58:18;5.32;;;2.83;;
62933;SDS011;49038;47.600;19.242;2023-03-19T11:01:21;9.77;;;3.33;;
62933;SDS011;49038;47.600;19.242;2023-03-19T11:04:29;9.90;;;3.72;;
62933;SDS011;49038;47.600;19.242;2023-03-19T11:07:33;8.40;;;3.65;;
62933;SDS011;49038;47.600;19.242;2023-03-19T11:10:37;8.25;;;3.22;;
62933;SDS011;49038;47.600;19.242;2023-03-19T11:13:47;5.20;;;2.78;;
62933;SDS011;49038;47.600;19.242;2023-03-19T11:16:57;4.72;;;3.17;;
62933;SDS011;49038;47.600;19.242;2023-03-19T11:20:18;3.95;;;3.00;;
62933;SDS011;49038;47.600;19.242;2023-03-19T11:23:28;8.43;;;3.03;;
62933;SDS011;49038;47.600;19.242;2023-03-19T11:26:31;3.95;;;2.75;;
62933;SDS011;49038;47.600;19.242;2023-03-19T11:29:37;8.23;;;2.50;;
62933;SDS011;49038;47.600;19.242;2023-03-19T11:36:16;4.90;;;3.33;;
62933;SDS011;49038;47.600;19.242;2023-03-19T11:42:41;4.62;;;2.67;;
62933;SDS011;49038;47.600;19.242;2023-03-19T11:52:13;3.17;;;2.47;;
62933;SDS011;49038;47.600;19.242;2023-03-19T12:08:16;3.42;;;2.12;;
62933;SDS011;49038;47.600;19.242;2023-03-19T12:14:46;3.20;;;2.03;;
62933;SDS011;49038;47.600;19.242;2023-03-19T12:24:59;4.25;;;2.03;;
62933;SDS011;49038;47.600;19.242;2023-03-19T12:28:15;4.00;;;2.08;;
62933;SDS011;49038;47.600;19.242;2023-03-19T12:34:50;6.82;;;2.42;;
62933;SDS011;49038;47.600;19.242;2023-03-19T12:41:22;2.78;;;2.00;;
62933;SDS011;49038;47.600;19.242;2023-03-19T12:44:36;3.47;;;2.12;;
62933;SDS011;49038;47.600;19.242;2023-03-19T12:47:44;3.35;;;1.95;;
62933;SDS011;49038;47.600;19.242;2023-03-19T12:50:48;4.93;;;2.50;;
62933;SDS011;49038;47.600;19.242;2023-03-19T12:53:58;3.53;;;2.37;;
62933;SDS011;49038;47.600;19.242;2023-03-19T13:00:12;3.37;;;1.70;;
62933;SDS011;49038;47.600;19.242;2023-03-19T13:03:24;3.85;;;2.17;;
62933;SDS011;49038;47.600;19.242;2023-03-19T13:06:57;4.17;;;2.37;;
62933;SDS011;49038;47.600;19.242;2023-03-19T13:10:05;3.97;;;2.15;;
62933;SDS011;49038;47.600;19.242;2023-03-19T13:17:20;5.33;;;2.70;;
62933;SDS011;49038;47.600;19.242;2023-03-19T13:27:29;3.58;;;2.40;;
62933;SDS011;49038;47.600;19.242;2023-03-19T13:30:33;3.75;;;2.22;;
62933;SDS011;49038;47.600;19.242;2023-03-19T13:33:36;4.90;;;2.70;;
62933;SDS011;49038;47.600;19.242;2023-03-19T13:36:39;2.70;;;2.25;;
62933;SDS011;49038;47.600;19.242;2023-03-19T13:39:41;4.12;;;2.25;;
62933;SDS011;49038;47.600;19.242;2023-03-19T13:42:44;7.22;;;2.58;;
62933;SDS011;49038;47.600;19.242;2023-03-19T13:55:29;4.37;;;2.87;;
62933;SDS011;49038;47.600;19.242;2023-03-19T13:59:35;3.28;;;2.37;;
62933;SDS011;49038;47.600;19.242;2023-03-19T14:05:31;3.15;;;2.37;;
62933;SDS011;49038;47.600;19.242;2023-03-19T14:08:41;4.85;;;2.90;;
62933;SDS011;49038;47.600;19.242;2023-03-19T14:11:48;5.22;;;3.05;;
62933;SDS011;49038;47.600;19.242;2023-03-19T14:14:58;4.90;;;2.87;;
62933;SDS011;49038;47.600;19.242;2023-03-19T14:18:11;11.35;;;5.18;;
62933;SDS011;49038;47.600;19.242;2023-03-19T14:25:17;8.40;;;4.00;;
62933;SDS011;49038;47.600;19.242;2023-03-19T14:28:21;4.65;;;2.85;;
62933;SDS011;49038;47.600;19.242;2023-03-19T14:31:27;4.97;;;3.05;;
62933;SDS011;49038;47.600;19.242;2023-03-19T14:34:39;4.82;;;3.08;;
62933;SDS011;49038;47.600;19.242;2023-03-19T14:37:43;4.68;;;2.75;;
62933;SDS011;49038;47.600;19.242;2023-03-19T14:40:50;4.28;;;2.55;;
62933;SDS011;49038;47.600;19.242;2023-03-19T14:47:43;3.85;;;2.65;;
62933;SDS011;49038;47.600;19.242;2023-03-19T14:57:45;6.30;;;3.83;;
62933;SDS011;49038;47.600;19.242;2023-03-19T15:00:48;5.35;;;3.10;;
62933;SDS011;49038;47.600;19.242;2023-03-19T15:03:53;3.92;;;2.20;;
62933;SDS011;49038;47.600;19.242;2023-03-19T15:07:09;6.70;;;3.20;;
62933;SDS011;49038;47.600;19.242;2023-03-19T15:10:21;6.43;;;2.60;;
62933;SDS011;49038;47.600;19.242;2023-03-19T15:16:53;3.20;;;2.50;;
62933;SDS011;49038;47.600;19.242;2023-03-19T15:19:59;12.90;;;2.22;;
62933;SDS011;49038;47.600;19.242;2023-03-19T15:23:02;4.20;;;2.17;;
62933;SDS011;49038;47.600;19.242;2023-03-19T15:26:27;3.40;;;2.30;;
62933;SDS011;49038;47.600;19.242;2023-03-19T15:29:33;3.25;;;2.10;;
62933;SDS011;49038;47.600;19.242;2023-03-19T15:32:39;3.40;;;2.28;;
62933;SDS011;49038;47.600;19.242;2023-03-19T15:39:26;4.30;;;2.65;;
62933;SDS011;49038;47.600;19.242;2023-03-19T15:42:31;6.18;;;2.58;;
62933;SDS011;49038;47.600;19.242;2023-03-19T15:45:33;3.87;;;2.08;;
62933;SDS011;49038;47.600;19.242;2023-03-19T15:48:43;2.78;;;2.20;;
62933;SDS011;49038;47.600;19.242;2023-03-19T15:51:52;3.78;;;2.00;;
62933;SDS011;49038;47.600;19.242;2023-03-19T15:54:59;5.15;;;2.40;;
62933;SDS011;49038;47.600;19.242;2023-03-19T15:58:06;7.03;;;2.17;;
62933;SDS011;49038;47.600;19.242;2023-03-19T16:01:11;4.85;;;2.58;;
62933;SDS011;49038;47.600;19.242;2023-03-19T16:04:16;6.15;;;2.80;;
62933;SDS011;49038;47.600;19.242;2023-03-19T16:07:24;2.75;;;2.12;;
62933;SDS011;49038;47.600;19.242;2023-03-19T16:10:41;4.87;;;3.35;;
62933;SDS011;49038;47.600;19.242;2023-03-19T16:13:45;6.10;;;3.05;;
62933;SDS011;49038;47.600;19.242;2023-03-19T16:17:10;4.30;;;2.17;;
62933;SDS011;49038;47.600;19.242;2023-03-19T16:20:15;4.75;;;2.47;;
62933;SDS011;49038;47.600;19.242;2023-03-19T16:23:17;2.55;;;2.12;;
62933;SDS011;49038;47.600;19.242;2023-03-19T16:26:24;3.50;;;1.83;;
62933;SDS011;49038;47.600;19.242;2023-03-19T16:29:36;5.00;;;2.80;;
62933;SDS011;49038;47.600;19.242;2023-03-19T16:32:40;3.90;;;1.85;;
62933;SDS011;49038;47.600;19.242;2023-03-19T16:35:43;3.33;;;2.72;;
62933;SDS011;49038;47.600;19.242;2023-03-19T16:42:46;3.50;;;2.92;;
62933;SDS011;49038;47.600;19.242;2023-03-19T16:46:04;5.78;;;2.78;;
62933;SDS011;49038;47.600;19.242;2023-03-19T16:49:09;5.93;;;4.05;;
62933;SDS011;49038;47.600;19.242;2023-03-19T16:52:21;5.25;;;3.08;;
62933;SDS011;49038;47.600;19.242;2023-03-19T16:55:34;4.50;;;2.92;;
62933;SDS011;49038;47.600;19.242;2023-03-19T16:58:38;7.40;;;4.05;;
62933;SDS011;49038;47.600;19.242;2023-03-19T17:01:43;12.80;;;4.65;;
62933;SDS011;49038;47.600;19.242;2023-03-19T17:04:48;8.75;;;4.43;;
62933;SDS011;49038;47.600;19.242;2023-03-19T17:07:50;4.43;;;3.42;;
62933;SDS011;49038;47.600;19.242;2023-03-19T17:10:53;6.80;;;3.97;;
62933;SDS011;49038;47.600;19.242;2023-03-19T17:13:57;6.90;;;3.15;;
62933;SDS011;49038;47.600;19.242;2023-03-19T17:17:00;11.23;;;6.12;;
62933;SDS011;49038;47.600;19.242;2023-03-19T17:20:03;8.10;;;4.97;;
62933;SDS011;49038;47.600;19.242;2023-03-19T17:23:10;7.57;;;3.37;;
62933;SDS011;49038;47.600;19.242;2023-03-19T17:26:18;7.12;;;3.25;;
62933;SDS011;49038;47.600;19.242;2023-03-19T17:29:21;14.20;;;5.12;;
62933;SDS011;49038;47.600;19.242;2023-03-19T17:32:25;28.45;;;10.88;;
62933;SDS011;49038;47.600;19.242;2023-03-19T17:35:28;64.78;;;20.60;;
62933;SDS011;49038;47.600;19.242;2023-03-19T17:38:31;33.05;;;11.52;;
62933;SDS011;49038;47.600;19.242;2023-03-19T17:41:35;46.22;;;17.10;;
62933;SDS011;49038;47.600;19.242;2023-03-19T17:44:37;56.72;;;23.85;;
62933;SDS011;49038;47.600;19.242;2023-03-19T17:47:41;57.53;;;22.33;;
62933;SDS011;49038;47.600;19.242;2023-03-19T17:50:44;47.72;;;20.83;;
62933;SDS011;49038;47.600;19.242;2023-03-19T17:53:47;54.60;;;22.33;;
62933;SDS011;49038;47.600;19.242;2023-03-19T17:56:53;38.08;;;18.00;;
62933;SDS011;49038;47.600;19.242;2023-03-19T17:59:56;26.65;;;10.20;;
62933;SDS011;49038;47.600;19.242;2023-03-19T18:02:59;22.02;;;10.45;;
62933;SDS011;49038;47.600;19.242;2023-03-19T18:06:02;21.87;;;8.32;;
62933;SDS011;49038;47.600;19.242;2023-03-19T18:09:11;11.07;;;5.90;;
62933;SDS011;49038;47.600;19.242;2023-03-19T18:12:31;8.77;;;4.95;;
62933;SDS011;49038;47.600;19.242;2023-03-19T18:15:34;5.85;;;3.20;;
62933;SDS011;49038;47.600;19.242;2023-03-19T18:18:37;8.55;;;4.12;;
62933;SDS011;49038;47.600;19.242;2023-03-19T18:21:40;6.97;;;4.47;;
62933;SDS011;49038;47.600;19.242;2023-03-19T18:24:43;7.43;;;3.40;;
62933;SDS011;49038;47.600;19.242;2023-03-19T18:27:47;4.75;;;2.95;;
62933;SDS011;49038;47.600;19.242;2023-03-19T18:30:49;4.87;;;3.28;;
62933;SDS011;49038;47.600;19.242;2023-03-19T18:33:53;7.93;;;3.55;;
62933;SDS011;49038;47.600;19.242;2023-03-19T18:37:01;7.72;;;3.62;;
62933;SDS011;49038;47.600;19.242;2023-03-19T18:40:04;5.70;;;3.30;;
62933;SDS011;49038;47.600;19.242;2023-03-19T18:43:08;5.28;;;3.10;;
62933;SDS011;49038;47.600;19.242;2023-03-19T18:46:12;9.02;;;3.58;;
62933;SDS011;49038;47.600;19.242;2023-03-19T18:49:19;31.35;;;9.52;;
62933;SDS011;49038;47.600;19.242;2023-03-19T18:52:25;8.65;;;4.28;;
62933;SDS011;49038;47.600;19.242;2023-03-19T18:55:28;10.70;;;3.95;;
62933;SDS011;49038;47.600;19.242;2023-03-19T18:58:31;6.62;;;3.30;;
62933;SDS011;49038;47.600;19.242;2023-03-19T19:01:35;5.00;;;3.15;;
62933;SDS011;49038;47.600;19.242;2023-03-19T19:04:38;5.78;;;3.70;;
62933;SDS011;49038;47.600;19.242;2023-03-19T19:07:44;5.50;;;3.03;;
62933;SDS011;49038;47.600;19.242;2023-03-19T19:10:49;11.52;;;3.75;;
62933;SDS011;49038;47.600;19.242;2023-03-19T19:13:54;6.53;;;3.75;;
62933;SDS011;49038;47.600;19.242;2023-03-19T19:16:59;6.32;;;3.62;;
62933;SDS011;49038;47.600;19.242;2023-03-19T19:20:02;5.18;;;3.00;;
62933;SDS011;49038;47.600;19.242;2023-03-19T19:23:05;5.87;;;3.22;;
62933;SDS011;49038;47.600;19.242;2023-03-19T19:26:10;7.43;;;4.40;;
62933;SDS011;49038;47.600;19.242;2023-03-19T19:29:22;9.02;;;2.95;;
62933;SDS011;49038;47.600;19.242;2023-03-19T19:32:27;5.72;;;3.45;;
62933;SDS011;49038;47.600;19.242;2023-03-19T19:35:31;6.35;;;2.92;;
62933;SDS011;49038;47.600;19.242;2023-03-19T19:38:35;5.60;;;2.45;;
62933;SDS011;49038;47.600;19.242;2023-03-19T19:41:37;7.97;;;2.80;;
62933;SDS011;49038;47.600;19.242;2023-03-19T19:44:41;5.07;;;2.95;;
62933;SDS011;49038;47.600;19.242;2023-03-19T19:47:45;7.85;;;3.65;;
62933;SDS011;49038;47.600;19.242;2023-03-19T19:50:48;10.10;;;3.95;;
62933;SDS011;49038;47.600;19.242;2023-03-19T19:53:52;7.00;;;3.47;;
62933;SDS011;49038;47.600;19.242;2023-03-19T19:56:55;8.13;;;3.25;;
62933;SDS011;49038;47.600;19.242;2023-03-19T19:59:58;4.10;;;2.90;;
62933;SDS011;49038;47.600;19.242;2023-03-19T20:03:02;4.35;;;3.53;;
62933;SDS011;49038;47.600;19.242;2023-03-19T20:06:05;4.43;;;2.50;;
62933;SDS011;49038;47.600;19.242;2023-03-19T20:09:08;4.45;;;2.70;;
62933;SDS011;49038;47.600;19.242;2023-03-19T20:12:21;4.85;;;2.62;;